Time;durP1;ratioP1;P1;durP2;ratioP2;P2;SDS_P1;SDS_P2;PMS_P1;PMS_P2;Temp;Humidity;BMP_temperature;BMP_pressure;BME280_temperature;BME280_humidity;BME280_pressure;Samples;Min_cycle;Max_cycle;Signal;HPM_P1;HPM_P2
2022/09/30 05:02:04;;;;;;;;;;;;;;;;;;;;;
2022/09/30 05:05:47;;;;;;;0.85;0.65;;;6.30;99.90;;;;;;4854623;29;20088;-86
2022/09/30 05:08:34;;;;;;;0.90;0.70;;;6.00;99.90;;;;;;4784968;29;20059;-86
2022/09/30 05:11:13;;;;;;;1.05;0.50;;;6.30;99.90;;;;;;4773189;30;20043;-86
2022/09/30 05:14:10;;;;;;;;;;;;;;;;;;;;;
2022/09/30 05:17:24;;;;;;;;;;;;;;;;;;;;;
2022/09/30 05:20:48;;;;;;;;;;;;;;;;;;;;;
2022/09/30 05:26:41;;;;;;;0.82;0.52;;;5.90;99.90;;;;;;4771853;30;20588;-86
2022/09/30 05:29:53;;;;;;;;;;;;;;;;;;;;;
2022/09/30 05:33:00;;;;;;;0.60;0.50;;;6.00;99.90;;;;;;4786822;29;20471;-86
2022/09/30 05:35:57;;;;;;;1.23;0.60;;;6.10;99.90;;;;;;4769841;30;20062;-86
2022/09/30 05:38:33;;;;;;;0.60;0.60;;;6.80;99.90;;;;;;4760097;30;20051;-86
2022/09/30 05:41:47;;;;;;;;;;;;;;;;;;;;;
2022/09/30 05:44:35;;;;;;;0.90;0.60;;;6.10;99.90;;;;;;4868902;23;20419;-87
2022/09/30 05:47:19;;;;;;;0.50;0.50;;;6.10;99.90;;;;;;4886302;29;20071;-87
2022/09/30 05:50:22;;;;;;;0.90;0.57;;;6.50;99.90;;;;;;5038252;23;20139;-88
2022/09/30 05:56:07;;;;;;;0.70;0.50;;;6.10;99.90;;;;;;4901328;24;20045;-87
2022/09/30 05:58:34;;;;;;;0.60;0.60;;;6.70;99.90;;;;;;4837222;29;20053;-86
2022/09/30 06:01:09;;;;;;;0.45;0.45;;;6.00;99.90;;;;;;4849884;29;20106;-86
2022/09/30 06:03:35;;;;;;;0.77;0.50;;;7.30;99.90;;;;;;4852265;29;20058;-86
2022/09/30 06:06:00;;;;;;;0.40;0.40;;;5.00;99.90;;;;;;4850530;29;20103;-86
2022/09/30 06:08:27;;;;;;;0.50;0.50;;;6.50;99.90;;;;;;4855905;29;20055;-86
2022/09/30 06:10:52;;;;;;;0.50;0.40;;;5.70;99.90;;;;;;4851495;29;20459;-86
2022/09/30 06:13:20;;;;;;;0.90;0.60;;;7.10;99.90;;;;;;4849569;29;20049;-86
2022/09/30 06:15:58;;;;;;;0.80;0.60;;;6.00;99.90;;;;;;4833630;29;20583;-86
2022/09/30 06:18:24;;;;;;;2.88;0.80;;;5.90;99.90;;;;;;4851423;29;20042;-86
2022/09/30 06:20:51;;;;;;;2.75;0.88;;;7.10;99.90;;;;;;4850335;29;20578;-86
2022/09/30 06:23:17;;;;;;;1.17;0.60;;;6.80;99.90;;;;;;4848118;29;20045;-86
2022/09/30 06:25:44;;;;;;;1.33;0.60;;;5.80;99.90;;;;;;4844593;29;20557;-85
2022/09/30 06:28:12;;;;;;;0.82;0.60;;;5.60;99.90;;;;;;4852599;29;20046;-86
2022/09/30 06:30:49;;;;;;;1.88;0.80;;;6.80;99.90;;;;;;4842982;29;20129;-87
2022/09/30 06:33:16;;;;;;;1.50;0.60;;;6.10;99.90;;;;;;4849444;29;20081;-85
2022/09/30 06:35:42;;;;;;;1.48;0.50;;;5.30;99.90;;;;;;4856023;29;20046;-86
2022/09/30 06:38:14;;;;;;;1.48;0.73;;;6.30;99.90;;;;;;4850096;29;21568;-87
2022/09/30 06:40:43;;;;;;;0.95;0.63;;;6.50;99.90;;;;;;4850198;29;20478;-85
2022/09/30 06:43:10;;;;;;;1.17;0.80;;;6.10;99.90;;;;;;4849893;29;20065;-86
2022/09/30 06:45:38;;;;;;;1.60;0.60;;;7.10;99.90;;;;;;4850934;29;20448;-86
2022/09/30 06:48:07;;;;;;;0.93;0.63;;;5.90;99.90;;;;;;4850631;29;20053;-85
2022/09/30 06:50:34;;;;;;;1.67;0.98;;;7.60;99.90;;;;;;4857425;29;20113;-85
2022/09/30 06:53:01;;;;;;;1.58;0.80;;;8.10;99.90;;;;;;4849750;29;20049;-85
2022/09/30 06:55:28;;;;;;;2.45;1.02;;;7.40;99.90;;;;;;4842971;29;20477;-85
2022/09/30 06:58:00;;;;;;;1.30;0.70;;;7.50;99.90;;;;;;4835612;29;20102;-85
2022/09/30 07:00:27;;;;;;;0.80;0.52;;;7.70;99.90;;;;;;4851332;29;20082;-85
2022/09/30 07:02:56;;;;;;;1.65;1.00;;;7.80;99.90;;;;;;4851854;29;20053;-85
2022/09/30 07:05:34;;;;;;;1.88;0.90;;;8.00;99.90;;;;;;4835056;29;20135;-86
2022/09/30 07:19:45;;;;;;;;;;;;;;;;;;;;;
2022/09/30 07:25:48;;;;;;;2.75;0.90;;;8.80;99.90;;;;;;4824430;24;20060;-89
2022/09/30 07:30:55;;;;;;;4.00;1.42;;;9.20;99.90;;;;;;4794245;27;20061;-86
2022/09/30 07:33:22;;;;;;;2.28;1.00;;;9.30;99.90;;;;;;4878737;29;20049;-86
2022/09/30 07:35:55;;;;;;;1.65;0.90;;;9.40;99.90;;;;;;4879940;29;20045;-85
2022/09/30 07:38:23;;;;;;;2.83;1.50;;;9.70;99.90;;;;;;4879398;29;20068;-87
2022/09/30 07:40:57;;;;;;;3.67;1.58;;;9.80;99.90;;;;;;4878556;29;20045;-86
2022/09/30 07:43:33;;;;;;;3.28;1.70;;;9.90;99.90;;;;;;4900154;29;20085;-86
2022/09/30 07:46:09;;;;;;;3.33;2.00;;;10.10;99.90;;;;;;4900584;29;20041;-86
2022/09/30 07:48:45;;;;;;;3.40;1.88;;;10.20;99.90;;;;;;4901779;29;20053;-86
2022/09/30 07:51:29;;;;;;;2.38;1.65;;;10.40;99.90;;;;;;4902614;29;20033;-87
2022/09/30 07:54:01;;;;;;;2.92;1.48;;;10.50;99.90;;;;;;4902655;29;20036;-87
2022/09/30 07:56:28;;;;;;;2.53;1.75;;;10.60;99.90;;;;;;4900652;29;20089;-85
2022/09/30 07:59:01;;;;;;;2.33;1.35;;;10.70;99.90;;;;;;4901231;29;20025;-86
2022/09/30 08:01:30;;;;;;;2.47;1.20;;;10.60;99.90;;;;;;4900800;29;20064;-86
2022/09/30 08:03:59;;;;;;;1.33;0.90;;;10.80;99.90;;;;;;4891857;29;20053;-86
2022/09/30 08:06:30;;;;;;;3.20;1.33;;;11.10;99.90;;;;;;4886126;29;20049;-86
2022/09/30 08:08:57;;;;;;;1.10;0.73;;;11.20;99.90;;;;;;4896255;29;20131;-87
2022/09/30 08:11:24;;;;;;;2.17;1.05;;;11.30;99.90;;;;;;4892756;29;20053;-86
2022/09/30 08:13:51;;;;;;;4.18;1.20;;;11.40;99.90;;;;;;4864875;29;20105;-86
2022/09/30 08:16:18;;;;;;;3.05;1.63;;;11.80;99.90;;;;;;4880419;29;20060;-86
2022/09/30 08:18:47;;;;;;;2.35;1.00;;;11.60;99.90;;;;;;4863886;29;20057;-86
2022/09/30 08:21:20;;;;;;;1.15;0.73;;;11.40;99.90;;;;;;4862472;29;20053;-87
2022/09/30 08:23:46;;;;;;;1.02;0.80;;;11.80;99.90;;;;;;4878708;29;20045;-87
2022/09/30 08:26:15;;;;;;;1.65;0.70;;;11.90;99.90;;;;;;4877555;29;20049;-86
2022/09/30 08:28:45;;;;;;;1.25;0.80;;;12.00;99.90;;;;;;4877595;29;20402;-86
2022/09/30 08:31:25;;;;;;;1.25;0.80;;;12.10;99.90;;;;;;4877595;29;20064;-86
2022/09/30 08:33:54;;;;;;;0.70;0.52;;;11.80;99.90;;;;;;4863309;29;20052;-87
2022/09/30 08:36:24;;;;;;;1.40;0.70;;;12.30;99.90;;;;;;4880375;29;20049;-86
2022/09/30 08:38:53;;;;;;;1.25;0.80;;;12.60;99.90;;;;;;4880819;29;20080;-86
2022/09/30 08:41:56;;;;;;;0.73;0.63;;;12.60;99.90;;;;;;4880991;29;20051;-86
2022/09/30 08:44:39;;;;;;;0.82;0.60;;;12.70;99.90;;;;;;4882181;29;20049;-86
2022/09/30 08:47:37;;;;;;;0.95;0.65;;;12.80;99.90;;;;;;4880515;29;20073;-86
2022/09/30 08:50:33;;;;;;;1.80;0.80;;;12.90;99.90;;;;;;4809715;29;20110;-87
2022/09/30 08:53:13;;;;;;;3.47;0.60;;;13.00;99.90;;;;;;4824468;29;20069;-87
2022/09/30 08:55:42;;;;;;;1.50;0.77;;;13.10;99.90;;;;;;4809015;29;20155;-86
2022/09/30 08:58:21;;;;;;;1.10;0.60;;;13.30;99.90;;;;;;4824123;29;20130;-86
2022/09/30 09:00:49;;;;;;;1.08;0.47;;;13.40;99.90;;;;;;4809311;29;20058;-86
2022/09/30 09:03:19;;;;;;;0.50;0.40;;;13.50;99.90;;;;;;4808895;29;20171;-86
2022/09/30 09:05:57;;;;;;;1.17;0.57;;;13.60;99.90;;;;;;4808947;29;20062;-86
2022/09/30 09:09:10;;;;;;;1.00;0.55;;;13.80;99.90;;;;;;4808889;29;20201;-86
2022/09/30 09:11:44;;;;;;;1.00;0.40;;;13.80;99.90;;;;;;4787443;29;20058;-88
2022/09/30 09:14:37;;;;;;;1.00;0.60;;;14.30;99.90;;;;;;4772773;29;20104;-86
2022/09/30 09:17:27;;;;;;;1.35;0.50;;;14.10;99.90;;;;;;4772849;30;20111;-86
2022/09/30 09:20:17;;;;;;;1.02;0.70;;;14.30;99.90;;;;;;4772952;30;20063;-87
2022/09/30 09:22:47;;;;;;;1.58;0.63;;;14.30;99.90;;;;;;4773077;30;20063;-86
2022/09/30 09:25:16;;;;;;;0.82;0.63;;;14.40;99.90;;;;;;4799109;29;20086;-86
2022/09/30 09:28:00;;;;;;;1.08;0.50;;;14.40;99.90;;;;;;4808470;29;20066;-87
2022/09/30 09:30:42;;;;;;;1.17;0.60;;;14.60;99.90;;;;;;4823565;29;20134;-86
2022/09/30 09:33:41;;;;;;;0.93;0.40;;;14.60;99.90;;;;;;4808522;29;20081;-86
2022/09/30 09:36:42;;;;;;;2.25;0.63;;;15.10;99.90;;;;;;4823145;29;20127;-86
2022/09/30 09:39:18;;;;;;;0.77;0.50;;;14.90;99.90;;;;;;4808536;29;20404;-86
2022/09/30 09:42:21;;;;;;;1.52;0.82;;;15.00;99.90;;;;;;4823293;29;20067;-87
2022/09/30 09:45:16;;;;;;;1.08;0.70;;;15.20;99.90;;;;;;4879534;29;20045;-86
2022/09/30 09:47:46;;;;;;;0.73;0.38;;;15.20;99.90;;;;;;4879430;29;20121;-87
2022/09/30 09:50:24;;;;;;;1.00;0.30;;;15.40;99.90;;;;;;4881282;29;20044;-86
2022/09/30 09:53:02;;;;;;;2.25;0.40;;;15.60;99.90;;;;;;4879493;29;20109;-86
2022/09/30 09:55:42;;;;;;;0.60;0.30;;;15.40;99.90;;;;;;4879276;29;20049;-86
2022/09/30 09:58:16;;;;;;;0.35;0.20;;;15.60;99.90;;;;;;4879596;29;20041;-86
2022/09/30 10:03:24;;;;;;;0.77;0.30;;;15.80;99.90;;;;;;4880637;29;20084;-87
2022/09/30 10:06:07;;;;;;;1.02;0.40;;;15.70;99.90;;;;;;4879261;29;20056;-87
2022/09/30 10:08:52;;;;;;;5.15;0.40;;;15.90;99.90;;;;;;4880271;29;20053;-88
2022/09/30 10:11:25;;;;;;;1.48;0.40;;;15.90;99.90;;;;;;4879067;29;20064;-87
2022/09/30 10:13:59;;;;;;;2.10;0.30;;;16.00;99.90;;;;;;4878867;29;20041;-87
2022/09/30 10:16:34;;;;;;;3.45;0.30;;;16.10;99.90;;;;;;4879563;29;20044;-88
2022/09/30 10:19:24;;;;;;;0.80;0.30;;;16.20;99.90;;;;;;4881023;29;20138;-87
2022/09/30 10:21:55;;;;;;;0.70;0.40;;;16.30;99.90;;;;;;4878933;29;20061;-87
2022/09/30 10:24:30;;;;;;;0.60;0.30;;;16.30;99.90;;;;;;4879937;29;20091;-86
2022/09/30 10:27:29;;;;;;;0.50;0.30;;;16.40;99.90;;;;;;4864310;29;20509;-88
2022/09/30 10:29:55;;;;;;;1.25;0.50;;;16.50;99.90;;;;;;4876711;29;20491;-85
2022/09/30 10:32:25;;;;;;;0.60;0.43;;;16.60;99.90;;;;;;4847935;29;20105;-87
2022/09/30 10:35:24;;;;;;;1.10;0.28;;;16.60;99.90;;;;;;4848373;29;20047;-86
2022/09/30 10:37:53;;;;;;;0.20;0.20;;;16.60;99.90;;;;;;4883218;29;20128;-87
2022/09/30 10:40:27;;;;;;;0.40;0.40;;;16.60;99.90;;;;;;4874464;29;20053;-86
2022/09/30 10:42:58;;;;;;;0.35;0.30;;;16.70;99.90;;;;;;4889061;24;20045;-85
2022/09/30 10:48:25;;;;;;;0.30;0.22;;;16.90;99.90;;;;;;4873895;24;21747;-85
2022/09/30 10:50:55;;;;;;;0.65;0.30;;;17.00;99.90;;;;;;4849012;29;20089;-86
2022/09/30 10:53:28;;;;;;;0.70;0.30;;;17.00;99.90;;;;;;4837741;29;20121;-86
2022/09/30 10:55:55;;;;;;;0.20;0.20;;;17.10;99.90;;;;;;4854325;29;20381;-86
2022/09/30 10:58:53;;;;;;;0.65;0.40;;;17.20;99.90;;;;;;4849706;29;20046;-86
2022/09/30 11:01:37;;;;;;;0.50;0.30;;;17.30;99.90;;;;;;4848087;29;20610;-88
2022/09/30 11:04:32;;;;;;;0.50;0.38;;;17.30;99.90;;;;;;4842562;29;20042;-87
2022/09/30 11:07:11;;;;;;;0.83;0.30;;;17.30;99.90;;;;;;4848488;29;20098;-86
2022/09/30 11:13:49;;;;;;;1.20;0.52;;;17.40;99.90;;;;;;4846966;29;20116;-87
2022/09/30 11:16:46;;;;;;;2.22;0.70;;;17.50;99.90;;;;;;4844193;29;20053;-86
2022/09/30 11:19:47;;;;;;;1.98;0.50;;;17.70;99.90;;;;;;4836466;29;20050;-87
2022/09/30 11:22:38;;;;;;;1.02;0.50;;;18.20;99.90;;;;;;4859704;29;20058;-87
2022/09/30 11:25:07;;;;;;;2.33;0.77;;;17.90;99.90;;;;;;4843538;29;20042;-84
2022/09/30 11:27:41;;;;;;;1.10;0.68;;;18.10;99.90;;;;;;4869136;24;20514;-86
2022/09/30 11:30:35;;;;;;;1.02;0.57;;;18.00;99.90;;;;;;4888173;29;20561;-87
2022/09/30 11:36:00;;;;;;;1.45;0.57;;;17.70;99.90;;;;;;4893310;29;20388;-86
2022/09/30 11:39:00;;;;;;;0.90;0.50;;;17.50;99.90;;;;;;4886271;29;20072;-86
2022/09/30 11:41:39;;;;;;;1.45;0.65;;;17.40;99.90;;;;;;4885375;29;20047;-87
2022/09/30 11:44:26;;;;;;;0.40;0.20;;;17.50;99.90;;;;;;4896192;29;20112;-85
2022/09/30 11:47:11;;;;;;;0.30;0.30;;;17.60;99.90;;;;;;4879727;29;20052;-86
2022/09/30 11:50:14;;;;;;;0.35;0.20;;;17.60;99.90;;;;;;4862406;29;20111;-86
2022/09/30 11:52:55;;;;;;;1.27;0.40;;;17.60;99.90;;;;;;4884672;29;20077;-86
2022/09/30 11:55:29;;;;;;;0.93;0.30;;;17.70;99.90;;;;;;4877620;29;20109;-87
2022/09/30 11:58:16;;;;;;;0.40;0.30;;;17.80;99.90;;;;;;4894406;29;20052;-87
2022/09/30 12:00:45;;;;;;;0.52;0.22;;;17.80;99.90;;;;;;4854887;29;20506;-88
2022/09/30 12:03:17;;;;;;;0.43;0.20;;;17.80;99.90;;;;;;4871028;29;20532;-85
2022/09/30 12:05:53;;;;;;;1.45;0.20;;;17.90;99.90;;;;;;4878686;24;20052;-85
2022/09/30 12:16:34;;;;;;;0.40;0.20;;;17.90;99.90;;;;;;4747828;30;20483;-88
2022/09/30 12:26:49;;;;;;;0.93;0.60;;;18.00;99.90;;;;;;5010220;24;19977;-88
2022/09/30 12:38:55;;;;;;;;;;;18.40;99.90;;;;;;4830017;29;20421;-85
2022/09/30 12:41:54;;;;;;;0.70;0.30;;;18.00;99.90;;;;;;4837232;29;20162;-87
2022/09/30 12:45:08;;;;;;;;;;;;;;;;;;;;;
2022/09/30 12:53:38;;;;;;;1.27;0.30;;;18.20;99.90;;;;;;5032721;23;20083;-86
2022/09/30 12:56:14;;;;;;;0.90;0.30;;;18.40;99.90;;;;;;4884788;24;20053;-84
2022/09/30 13:02:43;;;;;;;;;;;;;;;;;;;;;
2022/09/30 13:13:38;;;;;;;1.30;0.35;;;18.20;99.90;;;;;;4750873;30;20089;-87
2022/09/30 13:17:31;;;;;;;;;;;;;;;;;;;;;
2022/09/30 13:21:02;;;;;;;0.75;0.30;;;18.20;99.90;;;;;;4709498;30;20056;-89
2022/09/30 13:24:33;;;;;;;2.28;0.20;;;17.90;99.90;;;;;;4678799;30;20095;-88
2022/09/30 13:41:33;;;;;;;;;;;;;;;;;;;;;
2022/09/30 13:44:34;;;;;;;0.63;0.35;;;18.40;99.90;;;;;;6187922;23;20454;-87
2022/09/30 13:47:47;;;;;;;;;;;;;;;;;;;;;
2022/09/30 13:50:54;;;;;;;;;;;;;;;;;;;;;
2022/09/30 14:05:03;;;;;;;;;;;;;;;;;;;;;
2022/09/30 14:07:54;;;;;;;;;;;;;;;;;;;;;
2022/09/30 14:15:03;;;;;;;0.68;0.50;;;17.80;99.90;;;;;;6015556;23;20074;-89
2022/09/30 14:18:20;;;;;;;;;;;;;;;;;;;;;
2022/09/30 14:21:35;;;;;;;0.68;0.50;;;17.80;99.90;;;;;;5997673;23;20459;-87
2022/09/30 14:24:37;;;;;;;1.73;0.65;;;17.80;99.90;;;;;;6063195;23;20051;-87
2022/09/30 14:28:05;;;;;;;0.82;0.50;;;17.80;99.90;;;;;;6099253;23;20021;-87
2022/09/30 14:31:20;;;;;;;0.60;0.40;;;17.80;99.90;;;;;;6101595;23;20058;-87
2022/09/30 14:34:09;;;;;;;0.80;0.43;;;17.80;99.90;;;;;;6095902;23;20446;-87
2022/09/30 14:37:38;;;;;;;;;;;;;;;;;;;;;
2022/09/30 14:40:35;;;;;;;1.42;0.90;;;17.40;99.90;;;;;;6097532;23;20022;-87
2022/09/30 14:43:59;;;;;;;;;;;;;;;;;;;;;
2022/09/30 14:46:58;;;;;;;1.25;0.93;;;17.30;99.90;;;;;;5955029;24;20106;-87
2022/09/30 14:49:31;;;;;;;0.85;0.40;;;17.10;99.90;;;;;;5902881;24;20342;-88
2022/09/30 14:52:23;;;;;;;1.13;0.68;;;17.10;99.90;;;;;;5975021;23;20011;-87
2022/09/30 14:55:17;;;;;;;;;;;;;;;;;;;;;
2022/09/30 14:58:05;;;;;;;1.38;1.02;;;17.00;99.90;;;;;;5987060;23;20016;-88
2022/09/30 15:01:28;;;;;;;1.65;0.90;;;16.90;99.90;;;;;;5962733;23;20123;-87
2022/09/30 15:28:22;;;;;;;;;;;;;;;;;;;;;
2022/09/30 15:31:51;;;;;;;;;;;;;;;;;;;;;
2022/09/30 15:35:22;;;;;;;;;;;;;;;;;;;;;
2022/09/30 15:41:54;;;;;;;1.20;0.60;;;16.40;99.90;;;;;;5848457;24;20030;-87
2022/09/30 15:44:50;;;;;;;1.05;0.68;;;16.30;99.90;;;;;;5806399;24;20499;-87
2022/09/30 15:47:16;;;;;;;;;;;16.20;99.90;;;;;;5828074;24;20101;-85
2022/09/30 15:50:17;;;;;;;1.70;0.57;;;16.20;99.90;;;;;;5828088;24;20302;-87
2022/09/30 15:53:53;;;;;;;;;;;16.10;99.90;;;;;;5122631;22;1291603;-87
2022/09/30 15:56:49;;;;;;;3.05;0.60;;;16.20;99.90;;;;;;5111088;28;19941;-87
2022/09/30 15:59:58;;;;;;;;;;;;;;;;;;;;;
2022/09/30 16:19:28;;;;;;;0.73;0.60;;;15.80;99.90;;;;;;1113990;23;21200;-89
2022/09/30 16:55:05;;;;;;;0.98;0.68;;;14.90;99.90;;;;;;4843090;24;20072;-86
2022/09/30 16:57:33;;;;;;;2.83;0.80;;;14.80;99.90;;;;;;4875927;29;20056;-84
2022/09/30 16:59:59;;;;;;;0.73;0.50;;;14.80;99.90;;;;;;4879878;29;20115;-84
2022/09/30 17:02:26;;;;;;;0.63;0.50;;;14.80;99.90;;;;;;4878796;29;20080;-84
2022/09/30 17:04:53;;;;;;;0.50;0.40;;;14.70;99.90;;;;;;4867898;29;20057;-85
2022/09/30 17:07:18;;;;;;;0.70;0.60;;;14.90;99.90;;;;;;4866488;29;20053;-84
2022/09/30 17:13:45;;;;;;;0.60;0.60;;;14.50;99.90;;;;;;4870702;29;20056;-86
2022/09/30 17:16:19;;;;;;;1.33;0.70;;;13.90;99.90;;;;;;4865297;29;20056;-84
2022/09/30 17:18:45;;;;;;;0.93;0.55;;;14.50;99.90;;;;;;4858486;29;20490;-85
2022/09/30 17:21:10;;;;;;;1.15;0.60;;;14.30;99.90;;;;;;4864880;29;20055;-84
2022/09/30 17:30:26;;;;;;;0.65;0.50;;;14.00;99.90;;;;;;4879746;29;20048;-91
2022/09/30 17:32:52;;;;;;;0.60;0.60;;;14.00;99.90;;;;;;4870124;29;20060;-84
2022/09/30 17:35:18;;;;;;;0.93;0.60;;;14.80;99.90;;;;;;4881287;29;20093;-84
2022/09/30 17:37:44;;;;;;;0.80;0.70;;;13.80;99.90;;;;;;4889649;29;20060;-83
2022/09/30 17:47:17;;;;;;;0.90;0.60;;;13.50;99.90;;;;;;5133339;23;20045;-87
2022/09/30 17:49:55;;;;;;;0.88;0.60;;;13.40;99.90;;;;;;4862170;29;20054;-85
2022/09/30 17:52:24;;;;;;;1.42;0.63;;;13.50;99.90;;;;;;4856169;29;20487;-82
2022/09/30 17:54:51;;;;;;;1.55;0.90;;;13.30;99.90;;;;;;4859866;29;20125;-84
2022/09/30 17:57:38;;;;;;;1.45;0.70;;;13.10;99.90;;;;;;4864337;29;20108;-86
2022/09/30 18:00:07;;;;;;;0.93;0.70;;;13.10;99.90;;;;;;4938210;24;20485;-82
2022/09/30 18:02:33;;;;;;;2.22;1.02;;;13.00;99.90;;;;;;4894676;29;20049;-85
2022/09/30 18:05:44;;;;;;;1.38;0.85;;;13.10;99.90;;;;;;4898741;29;20041;-86
2022/09/30 18:30:59;;;;;;;1.52;0.80;;;12.30;99.90;;;;;;4741684;30;20548;-86
2022/09/30 18:33:25;;;;;;;2.47;1.27;;;11.90;99.90;;;;;;4684675;30;20508;-85
2022/09/30 18:36:01;;;;;;;2.03;1.20;;;12.10;99.90;;;;;;4690199;30;20056;-87
2022/09/30 18:39:11;;;;;;;;;;;;;;;;;;;;;
2022/09/30 18:41:51;;;;;;;1.13;0.80;;;12.00;99.90;;;;;;4588029;31;20412;-85
2022/09/30 18:44:36;;;;;;;1.25;0.70;;;11.90;99.90;;;;;;4601633;30;20051;-86
2022/09/30 18:47:15;;;;;;;1.23;0.73;;;11.70;99.90;;;;;;4616488;30;20057;-85
2022/09/30 18:49:42;;;;;;;1.58;0.77;;;12.00;99.90;;;;;;4615671;31;20075;-86
2022/09/30 18:52:08;;;;;;;2.03;0.80;;;12.00;99.90;;;;;;4615371;30;20066;-85
2022/09/30 18:54:41;;;;;;;4.53;0.88;;;12.10;99.90;;;;;;4619180;30;20416;-85
2022/09/30 18:57:09;;;;;;;1.02;0.75;;;11.80;99.90;;;;;;4625218;30;20525;-85
2022/09/30 19:00:00;;;;;;;1.25;0.60;;;11.80;99.90;;;;;;4641111;30;20224;-86
2022/09/30 19:02:28;;;;;;;0.90;0.65;;;11.70;99.90;;;;;;4681878;30;20071;-85
2022/09/30 19:04:57;;;;;;;1.15;0.80;;;12.10;99.90;;;;;;4748013;30;20060;-85
2022/09/30 19:08:13;;;;;;;;;;;;;;;;;;;;;
2022/09/30 19:10:57;;;;;;;0.98;0.63;;;11.30;99.90;;;;;;4714427;29;20061;-86
2022/09/30 19:13:26;;;;;;;0.70;0.60;;;11.60;99.90;;;;;;4803203;29;20751;-87
2022/09/30 19:15:52;;;;;;;1.63;0.60;;;11.10;99.90;;;;;;4789458;29;20471;-86
2022/09/30 19:18:20;;;;;;;2.13;0.60;;;11.50;99.90;;;;;;4812135;29;20082;-86
2022/09/30 19:21:48;;;;;;;;;;;;;;;;;;;;;
2022/09/30 19:32:14;;;;;;;;;;;;;;;;;;;;;
2022/09/30 19:35:22;;;;;;;1.10;0.75;;;11.60;99.90;;;;;;4749215;30;20078;-87
2022/09/30 19:38:46;;;;;;;1.10;0.90;;;11.50;99.90;;;;;;4692570;30;20764;-87
2022/09/30 19:44:56;;;;;;;0.82;0.52;;;11.30;99.90;;;;;;4629358;30;20102;-86
2022/09/30 20:18:03;;;;;;;1.45;0.90;;;11.90;99.90;;;;;;5083525;28;20534;-86
2022/09/30 20:20:35;;;;;;;2.30;0.85;;;12.00;99.90;;;;;;5090796;28;20066;-85
2022/09/30 20:29:57;;;;;;;2.53;1.30;;;12.00;99.90;;;;;;5046381;28;20109;-85
2022/09/30 20:32:29;;;;;;;2.15;1.10;;;12.00;99.90;;;;;;5087258;28;20392;-86
2022/09/30 20:35:31;;;;;;;2.95;1.20;;;12.10;99.90;;;;;;5086112;28;20052;-87
2022/09/30 20:37:59;;;;;;;3.25;1.20;;;12.10;99.90;;;;;;5069390;28;20056;-85
2022/09/30 20:40:35;;;;;;;3.78;1.58;;;12.10;99.90;;;;;;5053533;28;20040;-88
2022/09/30 20:43:03;;;;;;;2.97;1.25;;;12.20;99.90;;;;;;5070220;28;20048;-86
2022/09/30 20:45:29;;;;;;;3.00;1.15;;;12.20;99.90;;;;;;5069638;28;20581;-86
2022/09/30 20:48:03;;;;;;;2.97;1.17;;;12.30;99.90;;;;;;5069891;28;20040;-86
2022/09/30 20:50:35;;;;;;;3.33;1.00;;;12.20;99.90;;;;;;5070345;28;20052;-86
2022/09/30 20:53:16;;;;;;;3.85;1.20;;;11.90;99.90;;;;;;5069816;28;20044;-86
2022/09/30 20:55:55;;;;;;;1.73;1.10;;;12.20;99.90;;;;;;5086809;28;20055;-86
2022/09/30 20:58:21;;;;;;;3.42;1.60;;;12.20;99.90;;;;;;5055043;28;20053;-85
2022/09/30 21:01:12;;;;;;;;;;;;;;;;;;;;;
2022/09/30 21:04:29;;;;;;;2.75;1.08;;;12.30;99.90;;;;;;5027990;28;20087;-87
2022/09/30 21:06:55;;;;;;;1.83;1.10;;;12.30;99.90;;;;;;4970328;28;20062;-86
2022/09/30 21:09:26;;;;;;;1.48;0.80;;;12.30;99.90;;;;;;4972522;28;20051;-85
2022/09/30 21:11:52;;;;;;;2.33;1.30;;;12.40;99.90;;;;;;4972228;28;20054;-86
2022/09/30 21:14:18;;;;;;;2.15;1.15;;;12.50;99.90;;;;;;4987963;28;20419;-86
2022/09/30 21:17:10;;;;;;;2.45;1.10;;;12.40;99.90;;;;;;4970528;28;20127;-86
2022/09/30 21:19:46;;;;;;;1.63;1.10;;;12.50;99.90;;;;;;4970848;28;20051;-88
2022/09/30 21:22:16;;;;;;;2.28;1.27;;;12.90;99.90;;;;;;4974755;28;20069;-86
2022/09/30 21:24:41;;;;;;;1.80;1.10;;;13.10;99.90;;;;;;4958661;28;20062;-85
2022/09/30 21:27:12;;;;;;;2.30;1.27;;;12.60;99.90;;;;;;4959099;28;20062;-88
2022/09/30 21:29:38;;;;;;;1.60;1.02;;;12.60;99.90;;;;;;4975703;28;20087;-85
2022/09/30 21:32:04;;;;;;;2.75;1.63;;;12.90;99.90;;;;;;4955548;28;20130;-84
2022/09/30 21:34:30;;;;;;;2.83;1.15;;;12.80;99.90;;;;;;4974419;28;20047;-84
2022/09/30 21:36:56;;;;;;;1.80;1.10;;;12.70;99.90;;;;;;4958847;28;20059;-84
2022/09/30 21:39:21;;;;;;;1.65;1.10;;;12.80;99.90;;;;;;4954805;28;20407;-84
2022/09/30 21:41:47;;;;;;;2.33;0.93;;;13.30;99.90;;;;;;4974355;28;20524;-85
2022/09/30 21:44:14;;;;;;;1.25;0.93;;;12.70;99.90;;;;;;5001508;28;20069;-84
2022/09/30 21:46:40;;;;;;;1.42;0.90;;;12.70;99.90;;;;;;5013925;28;20045;-84
2022/09/30 21:49:18;;;;;;;3.15;1.30;;;12.70;99.90;;;;;;5012689;28;20124;-84
2022/09/30 21:51:44;;;;;;;2.80;1.08;;;12.70;99.90;;;;;;5014009;28;20509;-84
2022/09/30 21:54:10;;;;;;;2.53;1.30;;;12.70;99.90;;;;;;5012204;28;20046;-84
2022/09/30 21:56:37;;;;;;;4.03;0.90;;;12.70;99.90;;;;;;5013972;28;20048;-85
2022/09/30 21:59:03;;;;;;;4.70;1.20;;;12.70;99.90;;;;;;5014463;28;20095;-84
2022/09/30 22:01:29;;;;;;;3.40;1.30;;;12.80;99.90;;;;;;5014213;28;20040;-85
2022/09/30 22:03:56;;;;;;;3.47;1.60;;;13.00;99.90;;;;;;5013454;28;20395;-84
2022/09/30 22:06:22;;;;;;;1.63;1.40;;;12.80;99.90;;;;;;5031729;28;20050;-84
2022/09/30 22:08:49;;;;;;;3.10;1.98;;;12.80;99.90;;;;;;4999466;28;20049;-84
2022/09/30 22:11:18;;;;;;;2.08;1.02;;;12.80;99.90;;;;;;5015866;28;20544;-84
2022/09/30 22:13:45;;;;;;;2.08;1.50;;;12.90;99.90;;;;;;5033789;28;20049;-84
2022/09/30 22:16:14;;;;;;;3.35;1.58;;;12.80;99.90;;;;;;5032505;28;20080;-85
2022/09/30 22:18:41;;;;;;;2.38;1.48;;;12.80;99.90;;;;;;5015779;28;20120;-87
2022/09/30 22:21:10;;;;;;;4.22;1.77;;;12.80;99.90;;;;;;5033709;28;20041;-84
2022/09/30 22:23:36;;;;;;;3.95;1.75;;;12.80;99.90;;;;;;5015264;28;20045;-86
2022/09/30 22:26:12;;;;;;;3.13;1.60;;;13.40;99.90;;;;;;5024032;28;20037;-86
2022/09/30 22:28:41;;;;;;;7.45;1.90;;;12.70;99.90;;;;;;5028135;28;20072;-86
2022/09/30 22:31:18;;;;;;;3.65;1.60;;;12.70;99.90;;;;;;5015381;28;20041;-85
2022/09/30 22:39:20;;;;;;;2.38;1.50;;;12.70;99.90;;;;;;5015127;28;20080;-86
2022/09/30 22:41:56;;;;;;;3.20;1.70;;;12.70;99.90;;;;;;5014723;28;20449;-86
2022/09/30 22:44:26;;;;;;;3.42;2.00;;;12.40;99.90;;;;;;5015201;28;20045;-88
2022/09/30 22:47:08;;;;;;;;;;;;;;;;;;;;;
2022/09/30 22:49:37;;;;;;;2.33;1.67;;;12.40;99.90;;;;;;5027504;28;20080;-86
2022/09/30 22:52:12;;;;;;;4.40;1.50;;;12.30;99.90;;;;;;5014922;28;20481;-86
2022/09/30 22:54:38;;;;;;;2.97;1.63;;;12.40;99.90;;;;;;5032546;28;20040;-86
2022/09/30 22:57:07;;;;;;;2.47;1.60;;;12.10;99.90;;;;;;5014779;28;20385;-86
2022/09/30 22:59:35;;;;;;;2.85;1.73;;;12.10;99.90;;;;;;5032579;28;20107;-86
2022/09/30 23:02:01;;;;;;;5.38;2.17;;;12.10;99.90;;;;;;5032781;28;20427;-86
2022/09/30 23:04:27;;;;;;;2.30;1.60;;;12.00;99.90;;;;;;5014516;28;20054;-86
2022/09/30 23:06:56;;;;;;;2.80;1.75;;;12.00;99.90;;;;;;5032468;28;20037;-86
2022/09/30 23:09:23;;;;;;;2.83;1.83;;;11.90;99.90;;;;;;4997895;28;20064;-85
2022/09/30 23:11:52;;;;;;;3.47;2.35;;;12.30;99.90;;;;;;4997523;28;20038;-85
2022/09/30 23:14:18;;;;;;;2.90;1.73;;;11.80;99.90;;;;;;5032606;28;20480;-86
2022/09/30 23:16:45;;;;;;;3.72;1.50;;;11.80;99.90;;;;;;5031469;28;20045;-85
2022/09/30 23:19:29;;;;;;;2.55;1.60;;;11.70;99.90;;;;;;5015092;28;20081;-86
2022/09/30 23:21:55;;;;;;;3.38;1.58;;;11.70;99.90;;;;;;5007554;28;20037;-86
2022/09/30 23:24:20;;;;;;;2.60;1.67;;;11.60;99.90;;;;;;5025019;28;20457;-87
2022/09/30 23:26:54;;;;;;;2.30;1.52;;;11.60;99.90;;;;;;5023936;28;20402;-85
2022/09/30 23:29:25;;;;;;;3.10;1.63;;;11.60;99.90;;;;;;5014240;28;20414;-86
2022/09/30 23:31:51;;;;;;;1.90;1.27;;;12.30;99.90;;;;;;5013849;28;20049;-86
2022/09/30 23:34:22;;;;;;;3.20;1.30;;;11.50;99.90;;;;;;5014222;28;20051;-87
2022/09/30 23:36:52;;;;;;;3.17;1.80;;;11.40;99.90;;;;;;5013548;28;20053;-86
2022/09/30 23:39:20;;;;;;;4.00;1.77;;;11.40;99.90;;;;;;5025950;28;20430;-86
2022/09/30 23:41:55;;;;;;;3.50;2.10;;;11.30;99.90;;;;;;5012574;28;20053;-87
2022/09/30 23:44:26;;;;;;;4.15;2.10;;;11.10;99.90;;;;;;5014242;28;20060;-86
2022/09/30 23:49:39;;;;;;;2.05;1.30;;;11.30;99.90;;;;;;5010833;28;20617;-86
2022/09/30 23:52:08;;;;;;;2.92;1.63;;;11.20;99.90;;;;;;5014132;28;20145;-86
2022/09/30 23:54:43;;;;;;;3.15;2.05;;;11.20;99.90;;;;;;5014485;28;20107;-87
2022/09/30 23:57:14;;;;;;;6.00;2.15;;;10.40;99.90;;;;;;5014182;28;20533;-87
2022/09/30 23:59:49;;;;;;;2.47;1.67;;;11.20;99.90;;;;;;5014337;28;20056;-87
